createdAt,value
2018-03-07T00:01:45.833Z,7.97
2018-03-07T00:04:13.312Z,8.10
2018-03-07T00:06:40.765Z,9.60
2018-03-07T00:09:08.218Z,8.17
2018-03-07T00:11:35.676Z,8.53
2018-03-07T00:14:03.892Z,7.40
2018-03-07T00:16:31.337Z,7.30
2018-03-07T00:18:58.800Z,8.77
2018-03-07T00:21:26.244Z,7.77
2018-03-07T00:23:54.467Z,6.53
2018-03-07T00:26:21.908Z,9.57
2018-03-07T00:28:49.335Z,7.23
2018-03-07T00:31:17.549Z,6.80
2018-03-07T00:33:45.009Z,7.20
2018-03-07T00:36:12.478Z,12.63
2018-03-07T00:38:39.912Z,7.90
2018-03-07T00:41:08.135Z,11.10
2018-03-07T00:43:35.593Z,14.97
2018-03-07T00:46:03.039Z,11.03
2018-03-07T00:48:30.489Z,14.83
2018-03-07T00:50:57.966Z,15.73
2018-03-07T00:53:25.430Z,19.17
2018-03-07T00:55:52.895Z,18.93
2018-03-07T00:58:20.337Z,16.47
2018-03-07T01:00:48.560Z,21.90
2018-03-07T01:03:16.024Z,15.67
2018-03-07T01:05:43.463Z,20.30
2018-03-07T01:08:10.928Z,18.80
2018-03-07T01:10:38.392Z,19.60
2018-03-07T01:13:05.831Z,18.03
2018-03-07T01:15:34.066Z,22.13
2018-03-07T01:18:01.511Z,19.23
2018-03-07T01:20:28.943Z,23.67
2018-03-07T01:22:56.418Z,20.27
2018-03-07T01:25:23.866Z,19.03
2018-03-07T01:27:51.344Z,20.90
2018-03-07T01:30:18.801Z,17.70
2018-03-07T01:32:46.248Z,15.00
2018-03-07T01:35:14.488Z,17.93
2018-03-07T01:37:41.926Z,15.40
2018-03-07T01:40:09.403Z,19.20
2018-03-07T01:42:36.870Z,17.70
2018-03-07T01:45:04.323Z,15.87
2018-03-07T01:47:31.775Z,16.37
2018-03-07T01:49:59.240Z,17.67
2018-03-07T01:52:26.698Z,22.80
2018-03-07T01:54:54.151Z,17.87
2018-03-07T01:57:21.613Z,20.17
2018-03-07T01:59:49.065Z,15.83
2018-03-07T02:02:16.515Z,21.40
2018-03-07T02:04:44.750Z,19.50
2018-03-07T02:07:12.193Z,20.73
2018-03-07T02:09:39.653Z,18.33
2018-03-07T02:12:07.091Z,16.73
2018-03-07T02:14:34.596Z,16.77
2018-03-07T02:17:02.020Z,23.90
2018-03-07T02:19:29.506Z,18.20
2018-03-07T02:21:56.976Z,16.80
2018-03-07T02:24:24.418Z,16.67
2018-03-07T02:26:51.886Z,16.37
2018-03-07T02:29:19.359Z,20.60
2018-03-07T02:31:46.810Z,18.47
2018-03-07T02:34:14.275Z,18.73
2018-03-07T02:36:41.743Z,20.53
2018-03-07T02:39:09.190Z,16.90
2018-03-07T02:41:36.650Z,23.47
2018-03-07T02:44:04.097Z,22.50
2018-03-07T02:46:32.329Z,22.90
2018-03-07T02:48:59.777Z,29.40
2018-03-07T02:51:27.250Z,31.93
2018-03-07T02:53:54.724Z,31.50
2018-03-07T02:56:22.177Z,33.43
2018-03-07T02:58:49.646Z,36.57
2018-03-07T03:01:17.112Z,38.27
2018-03-07T03:03:44.580Z,36.87
2018-03-07T03:06:12.023Z,32.40
2018-03-07T03:08:39.479Z,31.90
2018-03-07T03:11:06.922Z,37.80
2018-03-07T03:13:34.388Z,40.17
2018-03-07T03:16:01.865Z,37.53
2018-03-07T03:18:29.311Z,31.23
2018-03-07T03:20:56.780Z,35.17
2018-03-07T03:23:24.252Z,34.50
2018-03-07T03:25:51.710Z,32.20
2018-03-07T03:28:19.165Z,37.03
2018-03-07T03:30:46.645Z,34.40
2018-03-07T03:33:14.087Z,35.67
2018-03-07T03:35:41.535Z,36.77
2018-03-07T03:38:09.004Z,32.67
2018-03-07T03:40:37.207Z,33.03
2018-03-07T03:43:04.679Z,26.80
2018-03-07T03:45:32.123Z,31.80
2018-03-07T03:47:59.558Z,31.13
2018-03-07T03:50:27.804Z,32.37
2018-03-07T03:52:55.248Z,35.10
2018-03-07T03:55:22.712Z,32.07
2018-03-07T03:57:50.187Z,32.07
2018-03-07T04:00:17.645Z,28.37
2018-03-07T04:02:45.111Z,31.67
2018-03-07T04:05:12.612Z,35.30
2018-03-07T04:07:40.015Z,35.53
2018-03-07T04:10:07.464Z,34.13
2018-03-07T04:12:34.932Z,30.47
2018-03-07T04:15:02.396Z,33.67
2018-03-07T04:17:29.846Z,26.17
2018-03-07T04:19:57.304Z,41.93
2018-03-07T04:22:24.750Z,24.00
2018-03-07T04:24:52.968Z,36.67
2018-03-07T04:27:20.447Z,38.20
2018-03-07T04:29:47.874Z,40.43
2018-03-07T04:32:15.342Z,35.97
2018-03-07T04:34:42.810Z,41.27
2018-03-07T04:37:10.255Z,36.77
2018-03-07T04:39:37.714Z,43.77
2018-03-07T04:42:05.942Z,31.33
2018-03-07T04:44:33.406Z,41.17
2018-03-07T04:47:00.867Z,40.33
2018-03-07T04:49:28.336Z,37.27
2018-03-07T04:51:55.801Z,45.57
2018-03-07T04:54:24.014Z,42.37
2018-03-07T04:56:52.219Z,36.53
2018-03-07T04:59:19.692Z,37.90
2018-03-07T05:01:47.134Z,39.93
2018-03-07T05:04:14.587Z,42.63
2018-03-07T05:06:42.810Z,43.43
2018-03-07T05:09:11.052Z,43.27
2018-03-07T05:11:39.270Z,43.47
2018-03-07T05:14:06.730Z,43.60
2018-03-07T05:16:34.198Z,43.63
2018-03-07T05:19:01.654Z,39.40
2018-03-07T05:21:29.118Z,44.47
2018-03-07T05:23:56.596Z,41.53
2018-03-07T05:26:24.062Z,44.37
2018-03-07T05:28:51.513Z,42.73
2018-03-07T05:31:19.000Z,44.83
2018-03-07T05:33:46.450Z,45.83
2018-03-07T05:36:14.662Z,35.03
2018-03-07T05:38:42.892Z,39.37
2018-03-07T05:41:10.349Z,37.47
2018-03-07T05:43:37.801Z,42.80
2018-03-07T05:46:05.267Z,41.17
2018-03-07T05:48:32.733Z,40.83
2018-03-07T05:51:00.200Z,40.57
2018-03-07T05:53:27.659Z,37.23
2018-03-07T05:55:55.350Z,41.63
2018-03-07T05:58:22.828Z,44.97
2018-03-07T06:00:50.814Z,41.87
2018-03-07T06:03:18.277Z,40.13
2018-03-07T06:05:45.738Z,44.40
2018-03-07T06:08:13.878Z,44.37
2018-03-07T06:10:41.335Z,39.67
2018-03-07T06:13:08.806Z,41.77
2018-03-07T06:15:36.263Z,41.50
2018-03-07T06:18:03.712Z,39.53
2018-03-07T06:20:31.179Z,35.27
2018-03-07T06:22:58.651Z,39.67
2018-03-07T06:25:26.116Z,37.27
2018-03-07T06:27:53.580Z,40.93
2018-03-07T06:30:21.034Z,41.63
2018-03-07T06:32:49.605Z,38.70
2018-03-07T06:35:17.095Z,39.53
2018-03-07T06:37:45.048Z,41.30
2018-03-07T06:40:12.513Z,40.37
2018-03-07T06:42:39.989Z,39.33
2018-03-07T06:45:07.455Z,46.33
2018-03-07T06:47:34.886Z,43.03
2018-03-07T06:50:02.358Z,40.80
2018-03-07T06:52:29.809Z,42.33
2018-03-07T06:54:58.027Z,43.13
2018-03-07T06:57:25.488Z,39.87
2018-03-07T06:59:52.946Z,46.97
2018-03-07T07:02:20.397Z,44.03
2018-03-07T07:04:47.860Z,41.45
2018-03-07T07:07:15.319Z,46.70
2018-03-07T07:09:42.790Z,42.50
2018-03-07T07:12:10.243Z,41.43
2018-03-07T07:14:37.724Z,43.83
2018-03-07T07:17:05.169Z,42.73
2018-03-07T07:19:32.636Z,45.17
2018-03-07T07:22:00.197Z,50.93
2018-03-07T07:24:27.705Z,40.20
2018-03-07T07:26:55.091Z,42.43
2018-03-07T07:29:22.614Z,44.53
2018-03-07T07:31:50.095Z,51.40
2018-03-07T07:34:17.531Z,48.47
2018-03-07T07:36:44.987Z,44.87
2018-03-07T07:39:12.433Z,47.20
2018-03-07T07:41:39.871Z,49.63
2018-03-07T07:44:08.099Z,42.67
2018-03-07T07:46:35.558Z,46.80
2018-03-07T07:49:03.012Z,46.73
2018-03-07T07:51:30.481Z,46.00
2018-03-07T07:53:57.940Z,46.53
2018-03-07T07:56:25.406Z,43.77
2018-03-07T07:58:52.851Z,44.47
2018-03-07T08:01:21.109Z,42.50
2018-03-07T08:03:49.342Z,46.23
2018-03-07T08:06:16.791Z,48.43
2018-03-07T08:08:44.247Z,45.77
2018-03-07T08:11:11.699Z,45.07
2018-03-07T08:13:39.166Z,46.37
2018-03-07T08:16:06.625Z,48.73
2018-03-07T08:18:34.089Z,46.23
2018-03-07T08:21:01.541Z,46.87
2018-03-07T08:23:29.003Z,44.10
2018-03-07T08:25:56.460Z,46.93
2018-03-07T08:28:24.675Z,46.80
2018-03-07T08:30:52.117Z,50.90
2018-03-07T08:33:19.576Z,47.57
2018-03-07T08:35:47.046Z,45.07
2018-03-07T08:38:14.508Z,50.53
2018-03-07T08:40:41.950Z,45.67
2018-03-07T08:43:10.173Z,42.80
2018-03-07T08:45:37.617Z,38.50
2018-03-07T08:48:05.077Z,48.03
2018-03-07T08:50:32.511Z,45.47
2018-03-07T08:53:00.742Z,41.13
2018-03-07T08:55:28.495Z,44.33
2018-03-07T08:57:55.956Z,43.10
2018-03-07T09:00:23.424Z,44.37
2018-03-07T09:02:50.886Z,43.33
2018-03-07T09:05:18.366Z,41.50
2018-03-07T09:07:45.790Z,47.07
2018-03-07T09:10:13.245Z,46.27
2018-03-07T09:12:41.434Z,46.17
2018-03-07T09:15:08.875Z,47.87
2018-03-07T09:17:37.121Z,43.63
2018-03-07T09:20:04.597Z,37.60
2018-03-07T09:22:32.034Z,40.57
2018-03-07T09:24:59.487Z,38.47
2018-03-07T09:27:26.948Z,42.03
2018-03-07T09:29:54.420Z,36.57
2018-03-07T09:32:21.864Z,38.93
2018-03-07T09:34:49.364Z,34.43
2018-03-07T09:37:16.847Z,39.13
2018-03-07T09:39:44.287Z,39.03
2018-03-07T09:42:11.731Z,37.10
2018-03-07T09:44:39.194Z,37.97
2018-03-07T09:47:06.642Z,42.27
2018-03-07T09:49:34.105Z,36.97
2018-03-07T09:52:02.382Z,37.30
2018-03-07T09:54:29.843Z,36.20
2018-03-07T09:56:57.290Z,36.50
2018-03-07T09:59:27.343Z,39.33
2018-03-07T10:01:54.790Z,37.60
2018-03-07T10:04:23.029Z,37.07
2018-03-07T10:06:50.456Z,35.20
2018-03-07T10:09:17.926Z,33.57
2018-03-07T10:11:45.391Z,39.40
2018-03-07T10:14:12.836Z,39.30
2018-03-07T10:16:40.345Z,37.33
2018-03-07T10:19:07.752Z,34.70
2018-03-07T10:21:35.210Z,38.57
2018-03-07T10:24:02.663Z,40.23
2018-03-07T10:26:30.130Z,38.20
2018-03-07T10:28:57.590Z,40.30
2018-03-07T10:31:25.049Z,37.93
2018-03-07T10:33:52.494Z,42.53
2018-03-07T10:36:20.703Z,44.40
2018-03-07T10:38:48.180Z,41.67
2018-03-07T10:41:15.605Z,41.10
2018-03-07T10:43:43.825Z,41.63
2018-03-07T10:46:11.280Z,45.80
2018-03-07T10:48:38.736Z,42.03
2018-03-07T10:51:06.215Z,37.33
2018-03-07T10:53:33.665Z,30.07
2018-03-07T10:56:01.116Z,27.93
2018-03-07T10:58:28.570Z,27.10
2018-03-07T11:00:56.795Z,24.90
2018-03-07T11:03:24.236Z,25.50
2018-03-07T11:05:51.678Z,25.30
2018-03-07T11:08:19.118Z,25.93
2018-03-07T11:10:47.344Z,20.67
2018-03-07T11:13:14.808Z,20.73
2018-03-07T11:15:42.290Z,22.33
2018-03-07T11:18:09.732Z,22.77
2018-03-07T11:20:37.243Z,24.20
2018-03-07T11:23:04.670Z,24.73
2018-03-07T11:25:32.138Z,21.40
2018-03-07T11:27:59.618Z,20.90
2018-03-07T11:30:27.060Z,23.27
2018-03-07T11:32:54.547Z,24.20
2018-03-07T11:35:21.986Z,23.70
2018-03-07T11:37:49.458Z,21.33
2018-03-07T11:40:16.905Z,21.77
2018-03-07T11:42:44.343Z,22.40
2018-03-07T11:45:11.827Z,20.47
2018-03-07T11:47:39.281Z,23.80
2018-03-07T11:50:06.740Z,21.87
2018-03-07T11:52:34.195Z,22.10
2018-03-07T11:55:01.643Z,22.50
2018-03-07T11:57:29.092Z,17.70
2018-03-07T11:59:57.535Z,19.57
2018-03-07T12:02:24.971Z,24.17
2018-03-07T12:04:52.434Z,22.20
2018-03-07T12:07:19.918Z,21.23
2018-03-07T12:09:47.355Z,20.13
2018-03-07T12:12:14.818Z,20.00
2018-03-07T12:14:42.269Z,20.67
2018-03-07T12:17:09.726Z,22.90
2018-03-07T12:19:37.942Z,21.00
2018-03-07T12:22:05.392Z,21.37
2018-03-07T12:24:32.842Z,20.50
2018-03-07T12:27:00.290Z,19.23
2018-03-07T12:29:28.491Z,21.13
2018-03-07T12:31:55.966Z,21.63
2018-03-07T12:34:23.391Z,19.50
2018-03-07T12:36:51.613Z,20.13
2018-03-07T12:39:19.057Z,20.73
2018-03-07T12:41:46.573Z,20.77
2018-03-07T12:44:13.991Z,21.60
2018-03-07T12:46:41.451Z,19.30
2018-03-07T12:49:08.891Z,19.23
2018-03-07T12:51:37.116Z,18.57
2018-03-07T12:54:04.576Z,20.07
2018-03-07T12:56:32.019Z,19.87
2018-03-07T12:58:59.493Z,20.13
2018-03-07T13:01:26.918Z,26.67
2018-03-07T13:03:55.148Z,24.87
2018-03-07T13:06:22.616Z,22.93
2018-03-07T13:08:50.071Z,22.43
2018-03-07T13:11:17.536Z,24.57
2018-03-07T13:13:45.031Z,27.13
2018-03-07T13:16:12.488Z,24.33
2018-03-07T13:18:39.945Z,24.87
2018-03-07T13:21:07.437Z,27.90
2018-03-07T13:23:35.647Z,30.57
2018-03-07T13:26:03.121Z,25.83
2018-03-07T13:28:30.563Z,24.83
2018-03-07T13:30:58.037Z,25.17
2018-03-07T13:33:25.495Z,26.03
2018-03-07T13:35:52.957Z,24.10
2018-03-07T13:38:20.451Z,22.70
2018-03-07T13:40:47.895Z,22.97
2018-03-07T13:43:15.328Z,24.33
2018-03-07T13:45:42.777Z,22.13
2018-03-07T13:48:10.994Z,20.73
2018-03-07T13:50:38.463Z,22.70
2018-03-07T13:53:05.918Z,25.97
2018-03-07T13:55:33.381Z,24.17
2018-03-07T13:58:00.843Z,30.73
2018-03-07T14:00:28.275Z,20.57
2018-03-07T14:02:56.503Z,20.73
2018-03-07T14:05:23.995Z,18.10
2018-03-07T14:07:51.431Z,18.77
2018-03-07T14:10:18.879Z,19.17
2018-03-07T14:12:46.335Z,22.60
2018-03-07T14:15:13.784Z,21.97
2018-03-07T14:17:41.347Z,23.10
2018-03-07T14:20:08.779Z,21.77
2018-03-07T14:22:36.247Z,24.10
2018-03-07T14:25:03.716Z,20.27
2018-03-07T14:27:32.181Z,29.47
2018-03-07T14:29:59.641Z,22.00
2018-03-07T14:32:27.833Z,22.70
2018-03-07T14:34:55.279Z,24.07
2018-03-07T14:37:22.731Z,23.67
2018-03-07T14:39:50.188Z,24.50
2018-03-07T14:42:17.630Z,23.83
2018-03-07T14:44:45.081Z,23.53
2018-03-07T14:47:12.545Z,23.80
2018-03-07T14:49:39.995Z,25.00
2018-03-07T14:52:07.434Z,20.90
2018-03-07T14:54:34.883Z,23.23
2018-03-07T14:57:02.327Z,20.97
2018-03-07T14:59:29.822Z,23.53
2018-03-07T15:01:57.254Z,22.07
2018-03-07T15:04:24.705Z,22.67
2018-03-07T15:06:52.163Z,24.43
2018-03-07T15:09:19.621Z,25.23
2018-03-07T15:11:47.083Z,19.37
2018-03-07T15:14:14.530Z,19.57
2018-03-07T15:16:41.992Z,18.83
2018-03-07T15:19:09.457Z,17.03
2018-03-07T15:21:36.890Z,16.10
2018-03-07T15:24:05.136Z,19.03
2018-03-07T15:26:32.585Z,14.70
2018-03-07T15:29:00.053Z,14.03
2018-03-07T15:31:27.533Z,14.60
2018-03-07T15:33:55.000Z,14.73
2018-03-07T15:36:22.436Z,13.57
2018-03-07T15:38:49.913Z,16.33
2018-03-07T15:41:17.379Z,11.50
2018-03-07T15:43:44.840Z,13.90
2018-03-07T15:46:12.296Z,15.13
2018-03-07T15:48:39.746Z,13.57
2018-03-07T15:51:07.262Z,15.83
2018-03-07T15:53:34.694Z,13.17
2018-03-07T15:56:02.150Z,14.27
2018-03-07T15:58:29.604Z,14.80
2018-03-07T16:00:57.077Z,17.43
2018-03-07T16:03:24.548Z,14.37
2018-03-07T16:05:52.016Z,16.77
2018-03-07T16:08:19.467Z,17.97
2018-03-07T16:10:46.938Z,16.43
2018-03-07T16:13:14.389Z,15.40
2018-03-07T16:15:41.845Z,15.67
2018-03-07T16:18:09.292Z,16.97
2018-03-07T16:20:36.760Z,16.20
2018-03-07T16:23:04.225Z,15.30
2018-03-07T16:25:31.681Z,18.20
2018-03-07T16:27:59.133Z,17.70
2018-03-07T16:30:26.588Z,15.47
2018-03-07T16:32:54.023Z,16.10
2018-03-07T16:35:22.237Z,15.73
2018-03-07T16:37:49.730Z,17.43
2018-03-07T16:40:17.163Z,17.00
2018-03-07T16:42:44.621Z,17.20
2018-03-07T16:45:12.060Z,19.47
2018-03-07T16:47:40.267Z,17.10
2018-03-07T16:50:07.721Z,14.60
2018-03-07T16:52:35.163Z,18.57
2018-03-07T16:55:03.369Z,17.57
2018-03-07T16:57:30.813Z,16.23
2018-03-07T16:59:59.031Z,19.52
2018-03-07T17:02:26.476Z,20.90
2018-03-07T17:04:53.922Z,20.97
2018-03-07T17:07:22.152Z,18.77
2018-03-07T17:09:49.615Z,19.70
2018-03-07T17:12:17.062Z,21.00
2018-03-07T17:14:44.535Z,21.98
2018-03-07T17:17:12.428Z,21.93
2018-03-07T17:19:40.621Z,18.63
2018-03-07T17:22:08.917Z,23.23
2018-03-07T17:24:37.117Z,22.80
2018-03-07T17:27:04.590Z,19.23
2018-03-07T17:29:32.031Z,19.00
2018-03-07T17:31:59.475Z,19.20
2018-03-07T17:34:27.684Z,17.40
2018-03-07T17:36:55.156Z,18.23
2018-03-07T17:39:22.578Z,14.83
2018-03-07T17:41:50.788Z,17.20
2018-03-07T17:44:18.268Z,15.37
2018-03-07T17:46:45.714Z,15.03
2018-03-07T17:49:13.168Z,18.27
2018-03-07T17:51:40.640Z,18.40
2018-03-07T17:54:08.103Z,17.73
2018-03-07T17:56:35.546Z,18.80
2018-03-07T17:59:03.760Z,18.23
2018-03-07T18:01:31.232Z,19.70
2018-03-07T18:03:58.677Z,20.10
2018-03-07T18:06:26.158Z,19.70
2018-03-07T18:08:53.618Z,16.13
2018-03-07T18:11:21.071Z,17.93
2018-03-07T18:13:49.546Z,21.03
2018-03-07T18:16:17.010Z,21.20
2018-03-07T18:18:44.522Z,20.30
2018-03-07T18:21:11.974Z,19.70
2018-03-07T18:23:39.439Z,19.30
2018-03-07T18:26:06.907Z,19.70
2018-03-07T18:28:34.392Z,19.63
2018-03-07T18:31:02.607Z,20.00
2018-03-07T18:33:30.067Z,19.37
2018-03-07T18:35:57.531Z,17.57
2018-03-07T18:38:24.996Z,21.63
2018-03-07T18:40:52.452Z,20.33
2018-03-07T18:43:19.891Z,20.17
2018-03-07T18:45:48.143Z,19.20
2018-03-07T18:48:16.543Z,19.20
2018-03-07T18:50:43.990Z,22.23
2018-03-07T18:53:11.429Z,23.53
2018-03-07T18:55:38.883Z,23.07
2018-03-07T18:58:06.314Z,21.27
2018-03-07T19:00:33.764Z,19.57
2018-03-07T19:03:01.971Z,23.47
2018-03-07T19:05:29.414Z,21.87
2018-03-07T19:07:57.683Z,22.70
2018-03-07T19:10:32.670Z,25.97
2018-03-07T19:13:00.115Z,27.07
2018-03-07T19:15:27.576Z,26.83
2018-03-07T19:17:55.018Z,27.40
2018-03-07T19:20:23.251Z,27.47
2018-03-07T19:22:50.722Z,29.73
2018-03-07T19:25:18.175Z,30.17
2018-03-07T19:27:45.627Z,25.93
2018-03-07T19:30:13.091Z,34.97
2018-03-07T19:32:40.530Z,27.57
2018-03-07T19:35:08.002Z,26.30
2018-03-07T19:37:35.438Z,23.53
2018-03-07T19:40:03.645Z,20.87
2018-03-07T19:42:31.119Z,22.73
2018-03-07T19:44:58.573Z,21.43
2018-03-07T19:47:26.035Z,26.63
2018-03-07T19:49:53.498Z,23.53
2018-03-07T19:52:20.962Z,21.87
2018-03-07T19:54:48.418Z,21.07
2018-03-07T19:57:15.880Z,23.70
2018-03-07T19:59:43.352Z,20.67
2018-03-07T20:02:10.803Z,21.33
2018-03-07T20:04:38.244Z,23.33
2018-03-07T20:07:06.457Z,21.53
2018-03-07T20:09:33.886Z,17.50
2018-03-07T20:12:01.941Z,18.77
2018-03-07T20:14:29.374Z,18.33
2018-03-07T20:16:56.846Z,17.47
2018-03-07T20:19:24.299Z,18.03
2018-03-07T20:21:52.496Z,16.60
2018-03-07T20:24:19.951Z,15.40
2018-03-07T20:26:47.398Z,17.23
2018-03-07T20:29:14.858Z,15.40
2018-03-07T20:31:42.295Z,16.10
2018-03-07T20:34:09.745Z,14.27
2018-03-07T20:36:37.233Z,15.67
2018-03-07T20:39:04.689Z,17.37
2018-03-07T20:41:32.146Z,14.37
2018-03-07T20:43:59.582Z,14.37
2018-03-07T20:46:27.806Z,16.83
2018-03-07T20:48:55.238Z,15.40
2018-03-07T20:51:22.684Z,15.13
2018-03-07T20:53:50.904Z,13.33
2018-03-07T20:56:18.751Z,14.83
2018-03-07T20:58:46.953Z,14.60
2018-03-07T21:01:14.411Z,14.90
2018-03-07T21:03:41.833Z,16.27
2018-03-07T21:06:09.997Z,13.33
2018-03-07T21:08:37.436Z,12.23
2018-03-07T21:11:04.890Z,12.83
2018-03-07T21:13:32.317Z,14.10
2018-03-07T21:16:00.527Z,12.30
2018-03-07T21:18:27.976Z,10.53
2018-03-07T21:20:55.415Z,10.90
2018-03-07T21:23:23.645Z,10.60
2018-03-07T21:25:51.098Z,11.13
2018-03-07T21:28:18.547Z,10.03
2018-03-07T21:30:46.900Z,9.43
2018-03-07T21:33:15.110Z,10.90
2018-03-07T21:35:42.547Z,12.63
2018-03-07T21:38:10.748Z,11.37
2018-03-07T21:40:38.172Z,9.37
2018-03-07T21:43:05.618Z,10.17
2018-03-07T21:45:33.063Z,10.33
2018-03-07T21:48:03.004Z,11.33
2018-03-07T21:50:30.434Z,8.40
2018-03-07T21:52:57.918Z,8.70
2018-03-07T21:55:25.354Z,9.73
2018-03-07T21:57:52.788Z,8.07
2018-03-07T22:00:20.226Z,9.97
2018-03-07T22:02:47.665Z,13.67
2018-03-07T22:05:15.132Z,12.20
2018-03-07T22:07:42.555Z,9.17
2018-03-07T22:10:09.995Z,11.97
2018-03-07T22:12:38.196Z,10.23
2018-03-07T22:15:05.644Z,11.60
2018-03-07T22:17:33.835Z,13.00
2018-03-07T22:20:01.295Z,9.93
2018-03-07T22:22:28.716Z,13.77
2018-03-07T22:24:56.141Z,12.03
2018-03-07T22:27:23.587Z,11.53
2018-03-07T22:29:51.920Z,9.87
2018-03-07T22:32:20.119Z,8.13
2018-03-07T22:34:48.398Z,10.37
2018-03-07T22:37:16.600Z,11.77
2018-03-07T22:39:44.039Z,10.53
2018-03-07T22:42:12.244Z,9.80
2018-03-07T22:44:39.665Z,10.47
2018-03-07T22:47:08.258Z,12.27
2018-03-07T22:49:35.691Z,9.50
2018-03-07T22:52:03.134Z,11.27
2018-03-07T22:54:30.566Z,10.43
2018-03-07T22:57:00.833Z,9.93
2018-03-07T22:59:30.835Z,15.73
2018-03-07T23:01:58.250Z,10.40
2018-03-07T23:04:25.680Z,12.67
2018-03-07T23:06:53.120Z,12.03
2018-03-07T23:09:20.553Z,15.70
2018-03-07T23:11:49.668Z,14.17
2018-03-07T23:14:17.110Z,13.47
2018-03-07T23:16:45.310Z,12.23
2018-03-07T23:19:12.755Z,13.60
2018-03-07T23:21:40.970Z,14.37
2018-03-07T23:24:08.411Z,14.00
2018-03-07T23:26:36.606Z,15.87
2018-03-07T23:29:04.054Z,15.83
2018-03-07T23:31:32.253Z,15.80
2018-03-07T23:33:59.743Z,16.03
2018-03-07T23:36:27.186Z,18.10
2018-03-07T23:38:54.642Z,17.50
2018-03-07T23:41:22.073Z,20.07
2018-03-07T23:43:50.284Z,19.63
2018-03-07T23:46:17.727Z,18.53
2018-03-07T23:48:45.934Z,19.07
2018-03-07T23:51:13.375Z,21.47
2018-03-07T23:53:40.809Z,18.10
2018-03-07T23:56:09.012Z,20.77
2018-03-07T23:58:36.467Z,19.57
